sensor_id;sensor_type;location;lat;lon;timestamp;P1;durP1;ratioP1;P2;durP2;ratioP2
49103;SDS011;34915;52.926;11.116;2023-07-29T00:01:50;21.03;;;14.10;;
49103;SDS011;34915;52.926;11.116;2023-07-29T00:04:16;17.00;;;13.77;;
49103;SDS011;34915;52.926;11.116;2023-07-29T00:06:42;16.73;;;14.03;;
49103;SDS011;34915;52.926;11.116;2023-07-29T00:09:08;16.50;;;13.43;;
49103;SDS011;34915;52.926;11.116;2023-07-29T00:11:33;16.67;;;12.37;;
49103;SDS011;34915;52.926;11.116;2023-07-29T00:14:00;13.97;;;12.50;;
49103;SDS011;34915;52.926;11.116;2023-07-29T00:16:26;21.57;;;15.07;;
49103;SDS011;34915;52.926;11.116;2023-07-29T00:18:51;17.87;;;14.50;;
49103;SDS011;34915;52.926;11.116;2023-07-29T00:21:17;24.03;;;17.13;;
49103;SDS011;34915;52.926;11.116;2023-07-29T00:23:42;21.10;;;14.60;;
49103;SDS011;34915;52.926;11.116;2023-07-29T00:26:08;21.97;;;14.27;;
49103;SDS011;34915;52.926;11.116;2023-07-29T00:28:34;15.47;;;12.07;;
49103;SDS011;34915;52.926;11.116;2023-07-29T00:30:59;11.33;;;10.23;;
49103;SDS011;34915;52.926;11.116;2023-07-29T00:33:25;17.70;;;10.93;;
49103;SDS011;34915;52.926;11.116;2023-07-29T00:35:50;18.07;;;10.77;;
49103;SDS011;34915;52.926;11.116;2023-07-29T00:38:16;20.30;;;13.00;;
49103;SDS011;34915;52.926;11.116;2023-07-29T00:40:42;20.37;;;11.90;;
49103;SDS011;34915;52.926;11.116;2023-07-29T00:43:08;14.20;;;11.27;;
49103;SDS011;34915;52.926;11.116;2023-07-29T00:45:34;18.70;;;12.03;;
49103;SDS011;34915;52.926;11.116;2023-07-29T00:48:00;17.67;;;10.77;;
49103;SDS011;34915;52.926;11.116;2023-07-29T00:50:27;14.83;;;10.90;;
49103;SDS011;34915;52.926;11.116;2023-07-29T00:52:54;19.07;;;11.03;;
49103;SDS011;34915;52.926;11.116;2023-07-29T00:55:20;15.90;;;10.23;;
49103;SDS011;34915;52.926;11.116;2023-07-29T00:57:46;13.30;;;10.00;;
49103;SDS011;34915;52.926;11.116;2023-07-29T01:00:14;16.97;;;10.17;;
49103;SDS011;34915;52.926;11.116;2023-07-29T01:02:41;17.80;;;11.07;;
49103;SDS011;34915;52.926;11.116;2023-07-29T01:05:07;17.97;;;11.70;;
49103;SDS011;34915;52.926;11.116;2023-07-29T01:07:44;17.50;;;11.37;;
49103;SDS011;34915;52.926;11.116;2023-07-29T01:15:27;24.23;;;12.97;;
49103;SDS011;34915;52.926;11.116;2023-07-29T01:17:55;22.03;;;13.13;;
49103;SDS011;34915;52.926;11.116;2023-07-29T01:20:24;26.00;;;13.03;;
49103;SDS011;34915;52.926;11.116;2023-07-29T01:22:51;21.03;;;11.73;;
49103;SDS011;34915;52.926;11.116;2023-07-29T01:25:17;16.33;;;10.37;;
49103;SDS011;34915;52.926;11.116;2023-07-29T01:27:44;18.77;;;11.20;;
49103;SDS011;34915;52.926;11.116;2023-07-29T01:30:10;21.13;;;13.07;;
49103;SDS011;34915;52.926;11.116;2023-07-29T01:38:08;20.23;;;13.00;;
49103;SDS011;34915;52.926;11.116;2023-07-29T01:40:38;13.40;;;10.90;;
49103;SDS011;34915;52.926;11.116;2023-07-29T01:43:05;27.30;;;15.30;;
49103;SDS011;34915;52.926;11.116;2023-07-29T01:45:33;23.23;;;14.93;;
49103;SDS011;34915;52.926;11.116;2023-07-29T01:48:04;21.37;;;14.60;;
49103;SDS011;34915;52.926;11.116;2023-07-29T01:50:30;21.77;;;15.63;;
49103;SDS011;34915;52.926;11.116;2023-07-29T01:52:57;22.40;;;15.43;;
49103;SDS011;34915;52.926;11.116;2023-07-29T01:55:23;30.50;;;16.77;;
49103;SDS011;34915;52.926;11.116;2023-07-29T01:57:48;30.33;;;16.77;;
49103;SDS011;34915;52.926;11.116;2023-07-29T02:00:14;27.07;;;16.10;;
49103;SDS011;34915;52.926;11.116;2023-07-29T02:02:40;32.73;;;19.00;;
49103;SDS011;34915;52.926;11.116;2023-07-29T02:05:06;18.23;;;15.13;;
49103;SDS011;34915;52.926;11.116;2023-07-29T02:07:32;31.47;;;18.37;;
49103;SDS011;34915;52.926;11.116;2023-07-29T02:09:57;33.17;;;18.50;;
49103;SDS011;34915;52.926;11.116;2023-07-29T02:12:23;31.20;;;18.53;;
49103;SDS011;34915;52.926;11.116;2023-07-29T02:14:51;18.50;;;14.03;;
49103;SDS011;34915;52.926;11.116;2023-07-29T02:17:17;30.63;;;17.07;;
49103;SDS011;34915;52.926;11.116;2023-07-29T02:19:42;30.70;;;17.43;;
49103;SDS011;34915;52.926;11.116;2023-07-29T02:22:09;26.10;;;17.40;;
49103;SDS011;34915;52.926;11.116;2023-07-29T02:24:38;22.87;;;15.80;;
49103;SDS011;34915;52.926;11.116;2023-07-29T02:27:04;30.17;;;17.93;;
49103;SDS011;34915;52.926;11.116;2023-07-29T02:29:29;26.23;;;16.47;;
49103;SDS011;34915;52.926;11.116;2023-07-29T02:31:55;21.97;;;15.70;;
49103;SDS011;34915;52.926;11.116;2023-07-29T02:34:21;31.23;;;18.27;;
49103;SDS011;34915;52.926;11.116;2023-07-29T02:36:46;24.13;;;16.97;;
49103;SDS011;34915;52.926;11.116;2023-07-29T02:39:12;32.50;;;19.73;;
49103;SDS011;34915;52.926;11.116;2023-07-29T02:41:37;24.33;;;17.30;;
49103;SDS011;34915;52.926;11.116;2023-07-29T02:44:04;34.87;;;20.03;;
49103;SDS011;34915;52.926;11.116;2023-07-29T02:46:30;31.87;;;19.90;;
49103;SDS011;34915;52.926;11.116;2023-07-29T02:48:55;26.93;;;18.17;;
49103;SDS011;34915;52.926;11.116;2023-07-29T02:51:21;26.13;;;18.50;;
49103;SDS011;34915;52.926;11.116;2023-07-29T02:53:47;33.43;;;20.13;;
49103;SDS011;34915;52.926;11.116;2023-07-29T02:56:12;30.40;;;18.73;;
49103;SDS011;34915;52.926;11.116;2023-07-29T02:58:38;29.73;;;19.17;;
49103;SDS011;34915;52.926;11.116;2023-07-29T03:01:05;37.47;;;21.20;;
49103;SDS011;34915;52.926;11.116;2023-07-29T03:03:31;36.80;;;20.63;;
49103;SDS011;34915;52.926;11.116;2023-07-29T03:06:07;43.60;;;22.83;;
49103;SDS011;34915;52.926;11.116;2023-07-29T03:08:34;39.57;;;22.67;;
49103;SDS011;34915;52.926;11.116;2023-07-29T03:11:07;29.50;;;19.30;;
49103;SDS011;34915;52.926;11.116;2023-07-29T03:13:34;35.73;;;18.57;;
49103;SDS011;34915;52.926;11.116;2023-07-29T03:16:06;39.13;;;20.83;;
49103;SDS011;34915;52.926;11.116;2023-07-29T03:18:34;34.83;;;20.33;;
49103;SDS011;34915;52.926;11.116;2023-07-29T03:21:01;42.17;;;23.03;;
49103;SDS011;34915;52.926;11.116;2023-07-29T03:23:28;39.40;;;21.80;;
49103;SDS011;34915;52.926;11.116;2023-07-29T03:25:55;32.23;;;18.33;;
49103;SDS011;34915;52.926;11.116;2023-07-29T03:28:23;27.63;;;19.10;;
49103;SDS011;34915;52.926;11.116;2023-07-29T03:30:50;46.97;;;24.47;;
49103;SDS011;34915;52.926;11.116;2023-07-29T03:33:16;55.20;;;33.40;;
49103;SDS011;34915;52.926;11.116;2023-07-29T03:35:41;35.97;;;21.77;;
49103;SDS011;34915;52.926;11.116;2023-07-29T03:38:09;25.70;;;18.83;;
49103;SDS011;34915;52.926;11.116;2023-07-29T03:40:36;37.33;;;22.30;;
49103;SDS011;34915;52.926;11.116;2023-07-29T03:43:02;30.03;;;19.17;;
49103;SDS011;34915;52.926;11.116;2023-07-29T03:45:27;31.70;;;19.47;;
49103;SDS011;34915;52.926;11.116;2023-07-29T03:47:53;36.33;;;23.47;;
49103;SDS011;34915;52.926;11.116;2023-07-29T03:50:18;32.90;;;19.63;;
49103;SDS011;34915;52.926;11.116;2023-07-29T03:52:44;30.50;;;21.80;;
49103;SDS011;34915;52.926;11.116;2023-07-29T03:55:09;36.63;;;20.23;;
49103;SDS011;34915;52.926;11.116;2023-07-29T03:57:36;34.23;;;22.20;;
49103;SDS011;34915;52.926;11.116;2023-07-29T04:00:02;31.37;;;20.70;;
49103;SDS011;34915;52.926;11.116;2023-07-29T04:02:28;29.13;;;18.80;;
49103;SDS011;34915;52.926;11.116;2023-07-29T04:04:54;38.47;;;22.17;;
49103;SDS011;34915;52.926;11.116;2023-07-29T04:07:19;37.27;;;21.83;;
49103;SDS011;34915;52.926;11.116;2023-07-29T04:09:45;49.73;;;25.43;;
49103;SDS011;34915;52.926;11.116;2023-07-29T04:12:10;42.87;;;22.50;;
49103;SDS011;34915;52.926;11.116;2023-07-29T04:14:36;27.13;;;18.30;;
49103;SDS011;34915;52.926;11.116;2023-07-29T04:17:01;31.00;;;20.13;;
49103;SDS011;34915;52.926;11.116;2023-07-29T04:19:27;33.00;;;19.70;;
49103;SDS011;34915;52.926;11.116;2023-07-29T04:21:53;46.00;;;23.50;;
49103;SDS011;34915;52.926;11.116;2023-07-29T04:24:18;40.27;;;21.13;;
49103;SDS011;34915;52.926;11.116;2023-07-29T04:26:45;47.70;;;22.37;;
49103;SDS011;34915;52.926;11.116;2023-07-29T04:29:11;40.33;;;21.77;;
49103;SDS011;34915;52.926;11.116;2023-07-29T04:31:37;49.50;;;23.30;;
49103;SDS011;34915;52.926;11.116;2023-07-29T04:34:04;32.83;;;20.00;;
49103;SDS011;34915;52.926;11.116;2023-07-29T04:36:30;49.37;;;25.10;;
49103;SDS011;34915;52.926;11.116;2023-07-29T04:38:55;25.73;;;18.57;;
49103;SDS011;34915;52.926;11.116;2023-07-29T04:41:21;46.23;;;23.13;;
49103;SDS011;34915;52.926;11.116;2023-07-29T04:43:46;41.63;;;22.40;;
49103;SDS011;34915;52.926;11.116;2023-07-29T04:46:14;29.37;;;17.77;;
49103;SDS011;34915;52.926;11.116;2023-07-29T04:48:40;43.57;;;22.40;;
49103;SDS011;34915;52.926;11.116;2023-07-29T04:51:06;34.20;;;19.67;;
49103;SDS011;34915;52.926;11.116;2023-07-29T04:53:31;32.37;;;19.87;;
49103;SDS011;34915;52.926;11.116;2023-07-29T04:55:57;31.80;;;18.87;;
49103;SDS011;34915;52.926;11.116;2023-07-29T04:58:23;35.17;;;19.50;;
49103;SDS011;34915;52.926;11.116;2023-07-29T05:00:48;35.20;;;19.17;;
49103;SDS011;34915;52.926;11.116;2023-07-29T05:03:14;28.10;;;17.47;;
49103;SDS011;34915;52.926;11.116;2023-07-29T05:05:39;22.40;;;16.87;;
49103;SDS011;34915;52.926;11.116;2023-07-29T05:08:05;28.20;;;18.23;;
49103;SDS011;34915;52.926;11.116;2023-07-29T05:10:30;34.73;;;20.37;;
49103;SDS011;34915;52.926;11.116;2023-07-29T05:12:56;33.43;;;19.17;;
49103;SDS011;34915;52.926;11.116;2023-07-29T05:15:21;37.27;;;19.63;;
49103;SDS011;34915;52.926;11.116;2023-07-29T05:17:47;24.93;;;18.10;;
49103;SDS011;34915;52.926;11.116;2023-07-29T05:20:13;20.53;;;14.60;;
49103;SDS011;34915;52.926;11.116;2023-07-29T05:22:38;18.50;;;14.53;;
49103;SDS011;34915;52.926;11.116;2023-07-29T05:25:04;18.93;;;12.90;;
49103;SDS011;34915;52.926;11.116;2023-07-29T05:27:30;15.37;;;11.77;;
49103;SDS011;34915;52.926;11.116;2023-07-29T05:29:55;14.60;;;12.63;;
49103;SDS011;34915;52.926;11.116;2023-07-29T05:32:21;23.87;;;12.90;;
49103;SDS011;34915;52.926;11.116;2023-07-29T05:34:46;18.60;;;12.20;;
49103;SDS011;34915;52.926;11.116;2023-07-29T05:37:12;25.03;;;15.37;;
49103;SDS011;34915;52.926;11.116;2023-07-29T05:39:37;30.87;;;13.73;;
49103;SDS011;34915;52.926;11.116;2023-07-29T05:42:03;12.53;;;10.43;;
49103;SDS011;34915;52.926;11.116;2023-07-29T05:44:29;20.87;;;13.17;;
49103;SDS011;34915;52.926;11.116;2023-07-29T05:46:55;22.23;;;12.87;;
49103;SDS011;34915;52.926;11.116;2023-07-29T05:49:21;15.23;;;11.47;;
49103;SDS011;34915;52.926;11.116;2023-07-29T05:51:46;15.97;;;11.17;;
49103;SDS011;34915;52.926;11.116;2023-07-29T05:54:12;16.10;;;10.87;;
49103;SDS011;34915;52.926;11.116;2023-07-29T05:56:37;20.40;;;10.63;;
49103;SDS011;34915;52.926;11.116;2023-07-29T05:59:03;18.63;;;12.00;;
49103;SDS011;34915;52.926;11.116;2023-07-29T06:01:29;17.90;;;10.57;;
49103;SDS011;34915;52.926;11.116;2023-07-29T06:03:54;15.90;;;9.97;;
49103;SDS011;34915;52.926;11.116;2023-07-29T06:06:20;21.13;;;12.83;;
49103;SDS011;34915;52.926;11.116;2023-07-29T06:08:45;20.03;;;11.27;;
49103;SDS011;34915;52.926;11.116;2023-07-29T06:11:11;18.80;;;11.07;;
49103;SDS011;34915;52.926;11.116;2023-07-29T06:13:36;16.10;;;11.10;;
49103;SDS011;34915;52.926;11.116;2023-07-29T06:16:02;19.97;;;11.87;;
49103;SDS011;34915;52.926;11.116;2023-07-29T06:18:27;20.53;;;11.53;;
49103;SDS011;34915;52.926;11.116;2023-07-29T06:20:53;13.57;;;10.10;;
49103;SDS011;34915;52.926;11.116;2023-07-29T06:23:18;19.83;;;11.70;;
49103;SDS011;34915;52.926;11.116;2023-07-29T06:25:44;18.63;;;11.67;;
49103;SDS011;34915;52.926;11.116;2023-07-29T06:28:09;20.90;;;11.97;;
49103;SDS011;34915;52.926;11.116;2023-07-29T06:30:35;15.10;;;10.97;;
49103;SDS011;34915;52.926;11.116;2023-07-29T06:33:03;16.43;;;11.43;;
49103;SDS011;34915;52.926;11.116;2023-07-29T06:35:29;19.17;;;11.40;;
49103;SDS011;34915;52.926;11.116;2023-07-29T06:37:54;17.30;;;10.27;;
49103;SDS011;34915;52.926;11.116;2023-07-29T06:40:20;15.90;;;10.30;;
49103;SDS011;34915;52.926;11.116;2023-07-29T06:42:45;12.30;;;8.97;;
49103;SDS011;34915;52.926;11.116;2023-07-29T06:45:11;13.23;;;10.13;;
49103;SDS011;34915;52.926;11.116;2023-07-29T06:47:37;17.53;;;9.63;;
49103;SDS011;34915;52.926;11.116;2023-07-29T06:50:03;16.60;;;10.10;;
49103;SDS011;34915;52.926;11.116;2023-07-29T06:52:29;15.53;;;9.97;;
49103;SDS011;34915;52.926;11.116;2023-07-29T06:54:54;12.70;;;9.27;;
49103;SDS011;34915;52.926;11.116;2023-07-29T06:57:20;18.10;;;10.47;;
49103;SDS011;34915;52.926;11.116;2023-07-29T06:59:46;10.57;;;7.70;;
49103;SDS011;34915;52.926;11.116;2023-07-29T07:02:11;15.80;;;9.17;;
49103;SDS011;34915;52.926;11.116;2023-07-29T07:04:37;21.07;;;11.67;;
49103;SDS011;34915;52.926;11.116;2023-07-29T07:07:02;13.97;;;9.30;;
49103;SDS011;34915;52.926;11.116;2023-07-29T07:09:28;16.17;;;10.53;;
49103;SDS011;34915;52.926;11.116;2023-07-29T07:11:53;20.43;;;11.03;;
49103;SDS011;34915;52.926;11.116;2023-07-29T07:14:19;14.77;;;9.93;;
49103;SDS011;34915;52.926;11.116;2023-07-29T07:16:44;17.03;;;10.47;;
49103;SDS011;34915;52.926;11.116;2023-07-29T07:19:10;13.43;;;9.20;;
49103;SDS011;34915;52.926;11.116;2023-07-29T07:21:39;12.30;;;7.87;;
49103;SDS011;34915;52.926;11.116;2023-07-29T07:24:05;14.63;;;8.73;;
49103;SDS011;34915;52.926;11.116;2023-07-29T07:26:30;10.53;;;8.23;;
49103;SDS011;34915;52.926;11.116;2023-07-29T07:28:56;14.97;;;8.57;;
49103;SDS011;34915;52.926;11.116;2023-07-29T07:31:22;13.47;;;8.70;;
49103;SDS011;34915;52.926;11.116;2023-07-29T07:33:47;13.10;;;8.33;;
49103;SDS011;34915;52.926;11.116;2023-07-29T07:36:13;13.63;;;6.53;;
49103;SDS011;34915;52.926;11.116;2023-07-29T07:38:39;7.27;;;6.47;;
49103;SDS011;34915;52.926;11.116;2023-07-29T07:41:04;11.60;;;8.70;;
49103;SDS011;34915;52.926;11.116;2023-07-29T07:43:30;12.67;;;8.50;;
49103;SDS011;34915;52.926;11.116;2023-07-29T07:45:59;12.33;;;8.40;;
49103;SDS011;34915;52.926;11.116;2023-07-29T07:48:26;9.63;;;7.67;;
49103;SDS011;34915;52.926;11.116;2023-07-29T07:50:53;12.63;;;8.70;;
49103;SDS011;34915;52.926;11.116;2023-07-29T07:53:18;17.60;;;9.00;;
49103;SDS011;34915;52.926;11.116;2023-07-29T07:55:45;17.53;;;9.40;;
49103;SDS011;34915;52.926;11.116;2023-07-29T07:58:10;15.67;;;7.87;;
49103;SDS011;34915;52.926;11.116;2023-07-29T08:00:36;20.07;;;9.63;;
49103;SDS011;34915;52.926;11.116;2023-07-29T08:03:01;17.97;;;9.87;;
49103;SDS011;34915;52.926;11.116;2023-07-29T08:05:27;9.87;;;7.77;;
49103;SDS011;34915;52.926;11.116;2023-07-29T08:07:53;12.33;;;9.30;;
49103;SDS011;34915;52.926;11.116;2023-07-29T08:10:18;13.70;;;9.00;;
49103;SDS011;34915;52.926;11.116;2023-07-29T08:12:47;12.97;;;8.73;;
49103;SDS011;34915;52.926;11.116;2023-07-29T08:15:12;12.73;;;9.97;;
49103;SDS011;34915;52.926;11.116;2023-07-29T08:17:38;12.93;;;9.87;;
49103;SDS011;34915;52.926;11.116;2023-07-29T08:20:03;15.20;;;10.50;;
49103;SDS011;34915;52.926;11.116;2023-07-29T08:22:29;13.20;;;10.00;;
49103;SDS011;34915;52.926;11.116;2023-07-29T08:24:55;11.13;;;8.60;;
49103;SDS011;34915;52.926;11.116;2023-07-29T08:27:20;25.50;;;12.47;;
49103;SDS011;34915;52.926;11.116;2023-07-29T08:29:46;17.23;;;11.13;;
49103;SDS011;34915;52.926;11.116;2023-07-29T08:32:12;15.60;;;11.77;;
49103;SDS011;34915;52.926;11.116;2023-07-29T08:34:37;21.50;;;12.43;;
49103;SDS011;34915;52.926;11.116;2023-07-29T08:37:03;15.43;;;10.63;;
49103;SDS011;34915;52.926;11.116;2023-07-29T08:39:29;12.33;;;9.23;;
49103;SDS011;34915;52.926;11.116;2023-07-29T08:42:07;20.87;;;12.10;;
49103;SDS011;34915;52.926;11.116;2023-07-29T08:44:37;14.90;;;9.97;;
49103;SDS011;34915;52.926;11.116;2023-07-29T08:47:08;21.13;;;10.57;;
49103;SDS011;34915;52.926;11.116;2023-07-29T08:49:34;13.93;;;10.00;;
49103;SDS011;34915;52.926;11.116;2023-07-29T08:52:01;17.93;;;10.90;;
49103;SDS011;34915;52.926;11.116;2023-07-29T08:54:31;14.80;;;10.80;;
49103;SDS011;34915;52.926;11.116;2023-07-29T08:56:57;16.47;;;10.57;;
49103;SDS011;34915;52.926;11.116;2023-07-29T08:59:23;15.87;;;9.80;;
49103;SDS011;34915;52.926;11.116;2023-07-29T09:01:50;10.77;;;9.63;;
49103;SDS011;34915;52.926;11.116;2023-07-29T09:04:18;12.00;;;9.30;;
49103;SDS011;34915;52.926;11.116;2023-07-29T09:06:43;12.47;;;10.07;;
49103;SDS011;34915;52.926;11.116;2023-07-29T09:09:11;9.80;;;8.57;;
49103;SDS011;34915;52.926;11.116;2023-07-29T09:11:37;10.43;;;9.20;;
49103;SDS011;34915;52.926;11.116;2023-07-29T09:14:03;19.13;;;12.37;;
49103;SDS011;34915;52.926;11.116;2023-07-29T09:16:28;13.50;;;9.90;;
49103;SDS011;34915;52.926;11.116;2023-07-29T09:18:54;18.10;;;11.27;;
49103;SDS011;34915;52.926;11.116;2023-07-29T09:21:24;16.17;;;12.13;;
49103;SDS011;34915;52.926;11.116;2023-07-29T09:23:54;12.63;;;9.50;;
49103;SDS011;34915;52.926;11.116;2023-07-29T09:26:24;18.70;;;12.43;;
49103;SDS011;34915;52.926;11.116;2023-07-29T09:28:52;13.73;;;10.43;;
49103;SDS011;34915;52.926;11.116;2023-07-29T09:31:22;13.13;;;10.37;;
49103;SDS011;34915;52.926;11.116;2023-07-29T09:33:49;13.87;;;11.33;;
49103;SDS011;34915;52.926;11.116;2023-07-29T09:36:15;20.27;;;15.70;;
49103;SDS011;34915;52.926;11.116;2023-07-29T09:38:41;20.67;;;14.93;;
49103;SDS011;34915;52.926;11.116;2023-07-29T09:41:09;20.50;;;18.37;;
49103;SDS011;34915;52.926;11.116;2023-07-29T09:43:37;12.83;;;11.83;;
49103;SDS011;34915;52.926;11.116;2023-07-29T09:46:03;16.00;;;14.37;;
49103;SDS011;34915;52.926;11.116;2023-07-29T09:48:36;17.73;;;15.63;;
49103;SDS011;34915;52.926;11.116;2023-07-29T09:51:09;13.77;;;12.47;;
49103;SDS011;34915;52.926;11.116;2023-07-29T09:53:40;15.53;;;13.90;;
49103;SDS011;34915;52.926;11.116;2023-07-29T09:56:10;11.10;;;10.10;;
49103;SDS011;34915;52.926;11.116;2023-07-29T09:58:37;11.30;;;10.13;;
49103;SDS011;34915;52.926;11.116;2023-07-29T10:01:06;10.57;;;9.57;;
49103;SDS011;34915;52.926;11.116;2023-07-29T10:03:36;8.17;;;7.47;;
49103;SDS011;34915;52.926;11.116;2023-07-29T10:06:02;7.30;;;5.63;;
49103;SDS011;34915;52.926;11.116;2023-07-29T10:08:31;6.90;;;5.50;;
49103;SDS011;34915;52.926;11.116;2023-07-29T10:10:59;6.37;;;5.70;;
49103;SDS011;34915;52.926;11.116;2023-07-29T10:13:25;6.97;;;6.30;;
49103;SDS011;34915;52.926;11.116;2023-07-29T10:15:51;6.83;;;5.70;;
49103;SDS011;34915;52.926;11.116;2023-07-29T10:18:19;5.77;;;5.27;;
49103;SDS011;34915;52.926;11.116;2023-07-29T10:20:47;6.70;;;5.93;;
49103;SDS011;34915;52.926;11.116;2023-07-29T10:23:15;8.60;;;6.27;;
49103;SDS011;34915;52.926;11.116;2023-07-29T10:25:45;5.93;;;4.70;;
49103;SDS011;34915;52.926;11.116;2023-07-29T10:28:12;5.40;;;5.00;;
49103;SDS011;34915;52.926;11.116;2023-07-29T10:30:41;4.57;;;4.00;;
49103;SDS011;34915;52.926;11.116;2023-07-29T10:33:07;5.40;;;4.90;;
49103;SDS011;34915;52.926;11.116;2023-07-29T10:35:32;4.30;;;3.87;;
49103;SDS011;34915;52.926;11.116;2023-07-29T10:37:59;5.20;;;3.37;;
49103;SDS011;34915;52.926;11.116;2023-07-29T10:40:25;4.07;;;3.77;;
49103;SDS011;34915;52.926;11.116;2023-07-29T10:43:00;3.87;;;3.60;;
49103;SDS011;34915;52.926;11.116;2023-07-29T10:45:36;4.43;;;4.13;;
49103;SDS011;34915;52.926;11.116;2023-07-29T10:48:12;3.87;;;3.57;;
49103;SDS011;34915;52.926;11.116;2023-07-29T10:53:54;5.17;;;3.90;;
49103;SDS011;34915;52.926;11.116;2023-07-29T10:56:43;4.07;;;3.77;;
49103;SDS011;34915;52.926;11.116;2023-07-29T11:01:39;5.77;;;3.80;;
49103;SDS011;34915;52.926;11.116;2023-07-29T11:07:34;4.53;;;4.13;;
49103;SDS011;34915;52.926;11.116;2023-07-29T11:17:37;5.50;;;5.00;;
49103;SDS011;34915;52.926;11.116;2023-07-29T11:20:07;6.17;;;5.67;;
49103;SDS011;34915;52.926;11.116;2023-07-29T11:22:33;5.57;;;5.07;;
49103;SDS011;34915;52.926;11.116;2023-07-29T11:24:59;6.13;;;5.53;;
49103;SDS011;34915;52.926;11.116;2023-07-29T11:27:25;6.47;;;5.97;;
49103;SDS011;34915;52.926;11.116;2023-07-29T11:29:50;5.97;;;5.47;;
49103;SDS011;34915;52.926;11.116;2023-07-29T11:32:22;8.87;;;5.07;;
49103;SDS011;34915;52.926;11.116;2023-07-29T11:34:48;6.43;;;4.53;;
49103;SDS011;34915;52.926;11.116;2023-07-29T11:37:13;5.27;;;4.87;;
49103;SDS011;34915;52.926;11.116;2023-07-29T11:39:41;4.20;;;3.90;;
49103;SDS011;34915;52.926;11.116;2023-07-29T11:42:10;4.30;;;3.97;;
49103;SDS011;34915;52.926;11.116;2023-07-29T11:44:37;6.97;;;3.93;;
49103;SDS011;34915;52.926;11.116;2023-07-29T11:47:06;3.90;;;3.60;;
49103;SDS011;34915;52.926;11.116;2023-07-29T11:49:35;3.43;;;3.23;;
49103;SDS011;34915;52.926;11.116;2023-07-29T11:52:03;2.90;;;2.70;;
49103;SDS011;34915;52.926;11.116;2023-07-29T11:54:31;3.13;;;2.93;;
49103;SDS011;34915;52.926;11.116;2023-07-29T11:56:56;3.23;;;2.67;;
49103;SDS011;34915;52.926;11.116;2023-07-29T11:59:22;3.40;;;3.20;;
49103;SDS011;34915;52.926;11.116;2023-07-29T12:01:48;3.87;;;3.00;;
49103;SDS011;34915;52.926;11.116;2023-07-29T12:04:14;3.83;;;2.63;;
49103;SDS011;34915;52.926;11.116;2023-07-29T12:06:41;2.73;;;2.53;;
49103;SDS011;34915;52.926;11.116;2023-07-29T12:09:07;7.97;;;3.60;;
49103;SDS011;34915;52.926;11.116;2023-07-29T12:11:34;4.30;;;3.03;;
49103;SDS011;34915;52.926;11.116;2023-07-29T12:14:00;13.83;;;3.60;;
49103;SDS011;34915;52.926;11.116;2023-07-29T12:16:28;6.33;;;3.57;;
49103;SDS011;34915;52.926;11.116;2023-07-29T12:19:00;31.73;;;7.13;;
49103;SDS011;34915;52.926;11.116;2023-07-29T12:21:28;15.73;;;5.50;;
49103;SDS011;34915;52.926;11.116;2023-07-29T12:23:54;15.13;;;5.90;;
49103;SDS011;34915;52.926;11.116;2023-07-29T12:26:19;12.33;;;5.80;;
49103;SDS011;34915;52.926;11.116;2023-07-29T12:28:46;9.07;;;4.90;;
49103;SDS011;34915;52.926;11.116;2023-07-29T12:31:12;10.37;;;6.23;;
49103;SDS011;34915;52.926;11.116;2023-07-29T12:33:38;17.60;;;7.70;;
49103;SDS011;34915;52.926;11.116;2023-07-29T12:36:04;10.37;;;6.43;;
49103;SDS011;34915;52.926;11.116;2023-07-29T12:38:33;12.40;;;6.97;;
49103;SDS011;34915;52.926;11.116;2023-07-29T12:40:58;11.97;;;6.57;;
49103;SDS011;34915;52.926;11.116;2023-07-29T12:43:25;13.77;;;6.97;;
49103;SDS011;34915;52.926;11.116;2023-07-29T12:45:51;9.30;;;7.03;;
49103;SDS011;34915;52.926;11.116;2023-07-29T12:48:17;12.97;;;6.63;;
49103;SDS011;34915;52.926;11.116;2023-07-29T12:50:42;12.53;;;7.63;;
49103;SDS011;34915;52.926;11.116;2023-07-29T12:53:08;9.23;;;6.27;;
49103;SDS011;34915;52.926;11.116;2023-07-29T12:55:37;7.20;;;5.63;;
49103;SDS011;34915;52.926;11.116;2023-07-29T12:58:03;8.33;;;6.17;;
49103;SDS011;34915;52.926;11.116;2023-07-29T13:00:29;7.60;;;5.10;;
49103;SDS011;34915;52.926;11.116;2023-07-29T13:02:55;5.60;;;4.60;;
49103;SDS011;34915;52.926;11.116;2023-07-29T13:05:21;8.27;;;5.93;;
49103;SDS011;34915;52.926;11.116;2023-07-29T13:07:47;9.20;;;5.37;;
49103;SDS011;34915;52.926;11.116;2023-07-29T13:10:13;11.47;;;6.80;;
49103;SDS011;34915;52.926;11.116;2023-07-29T13:12:39;9.20;;;5.83;;
49103;SDS011;34915;52.926;11.116;2023-07-29T13:15:05;6.63;;;5.93;;
49103;SDS011;34915;52.926;11.116;2023-07-29T13:17:31;6.53;;;5.87;;
49103;SDS011;34915;52.926;11.116;2023-07-29T13:19:58;8.87;;;7.60;;
49103;SDS011;34915;52.926;11.116;2023-07-29T13:22:23;13.73;;;8.47;;
49103;SDS011;34915;52.926;11.116;2023-07-29T13:24:49;10.13;;;8.43;;
49103;SDS011;34915;52.926;11.116;2023-07-29T13:27:14;7.97;;;6.87;;
49103;SDS011;34915;52.926;11.116;2023-07-29T13:29:40;15.40;;;8.50;;
49103;SDS011;34915;52.926;11.116;2023-07-29T13:32:06;7.57;;;6.97;;
49103;SDS011;34915;52.926;11.116;2023-07-29T13:34:32;8.17;;;7.37;;
49103;SDS011;34915;52.926;11.116;2023-07-29T13:36:59;8.23;;;7.37;;
49103;SDS011;34915;52.926;11.116;2023-07-29T13:39:25;8.63;;;7.73;;
49103;SDS011;34915;52.926;11.116;2023-07-29T13:41:51;10.57;;;8.23;;
49103;SDS011;34915;52.926;11.116;2023-07-29T13:44:16;6.80;;;6.20;;
49103;SDS011;34915;52.926;11.116;2023-07-29T13:46:42;7.90;;;7.17;;
49103;SDS011;34915;52.926;11.116;2023-07-29T13:49:07;14.03;;;7.33;;
49103;SDS011;34915;52.926;11.116;2023-07-29T13:51:33;7.40;;;6.70;;
49103;SDS011;34915;52.926;11.116;2023-07-29T13:53:58;7.23;;;6.53;;
49103;SDS011;34915;52.926;11.116;2023-07-29T13:56:24;7.00;;;6.40;;
49103;SDS011;34915;52.926;11.116;2023-07-29T13:58:50;8.37;;;7.53;;
49103;SDS011;34915;52.926;11.116;2023-07-29T14:01:15;7.87;;;7.27;;
49103;SDS011;34915;52.926;11.116;2023-07-29T14:03:41;6.87;;;6.30;;
49103;SDS011;34915;52.926;11.116;2023-07-29T14:06:06;7.23;;;6.63;;
49103;SDS011;34915;52.926;11.116;2023-07-29T14:08:32;8.23;;;7.43;;
49103;SDS011;34915;52.926;11.116;2023-07-29T14:10:57;7.83;;;7.00;;
49103;SDS011;34915;52.926;11.116;2023-07-29T14:13:23;6.60;;;6.10;;
49103;SDS011;34915;52.926;11.116;2023-07-29T14:15:48;5.90;;;5.37;;
49103;SDS011;34915;52.926;11.116;2023-07-29T14:18:14;5.23;;;4.83;;
49103;SDS011;34915;52.926;11.116;2023-07-29T14:20:39;5.13;;;4.73;;
49103;SDS011;34915;52.926;11.116;2023-07-29T14:23:05;5.70;;;4.80;;
49103;SDS011;34915;52.926;11.116;2023-07-29T14:25:31;4.33;;;4.00;;
49103;SDS011;34915;52.926;11.116;2023-07-29T14:27:56;4.70;;;4.30;;
49103;SDS011;34915;52.926;11.116;2023-07-29T14:30:22;4.60;;;4.20;;
49103;SDS011;34915;52.926;11.116;2023-07-29T14:32:48;8.07;;;3.63;;
49103;SDS011;34915;52.926;11.116;2023-07-29T14:35:13;6.03;;;4.23;;
49103;SDS011;34915;52.926;11.116;2023-07-29T14:37:39;4.97;;;4.20;;
49103;SDS011;34915;52.926;11.116;2023-07-29T14:40:05;4.50;;;4.20;;
49103;SDS011;34915;52.926;11.116;2023-07-29T14:42:31;5.20;;;4.70;;